Time,TemperatureF,DewpointF,PressureIn,WindDirection,WindDirectionDegrees,WindSpeedMPH,WindSpeedGustMPH,Humidity,HourlyPrecipIn,Conditions,Clouds,dailyrainin,SoftwareType,DateUTC
2013-01-08 00:03:00,21.1,7.8,30.05,South,180,1.8,2.5,56,0.00,,,0.00,WUHU216HW,2013-01-08 07:03:00,
2013-01-08 00:08:00,20.5,7.2,30.05,SSE,158,0.0,2.5,56,0.00,,,0.00,WUHU216HW,2013-01-08 07:08:00,
2013-01-08 00:13:00,20.2,7.3,30.05,SSW,203,0.0,1.8,57,0.00,,,0.00,WUHU216HW,2013-01-08 07:13:00,
2013-01-08 00:18:00,19.8,6.9,30.05,WSW,248,0.4,0.9,57,0.00,,,0.00,WUHU216HW,2013-01-08 07:18:00,
2013-01-08 00:23:00,19.3,6.8,30.05,West,270,0.0,1.1,58,0.00,,,0.00,WUHU216HW,2013-01-08 07:23:00,
2013-01-08 00:28:00,18.9,6.5,30.05,SSE,158,0.0,1.8,58,0.00,,,0.00,WUHU216HW,2013-01-08 07:28:00,
2013-01-08 00:33:00,18.4,5.9,30.05,SSW,203,1.8,2.7,58,0.00,,,0.00,WUHU216HW,2013-01-08 07:33:00,
2013-01-08 00:38:00,18.2,5.9,30.05,SSW,203,0.2,2.7,58,0.00,,,0.00,WUHU216HW,2013-01-08 07:38:00,
2013-01-08 00:43:00,17.6,5.8,30.05,SE,135,0.0,2.5,59,0.00,,,0.00,WUHU216HW,2013-01-08 07:43:00,
2013-01-08 00:48:00,17.3,5.4,30.05,South,180,0.0,0.7,59,0.00,,,0.00,WUHU216HW,2013-01-08 07:48:00,
2013-01-08 00:53:00,16.6,4.7,30.05,South,180,1.3,2.0,59,0.00,,,0.00,WUHU216HW,2013-01-08 07:53:00,
2013-01-08 00:58:00,16.2,4.7,30.05,South,180,1.1,2.5,60,0.00,,,0.00,WUHU216HW,2013-01-08 07:58:00,
2013-01-08 01:03:00,15.8,4.3,30.05,ESE,113,0.0,2.5,60,0.00,,,0.00,WUHU216HW,2013-01-08 08:03:00,
2013-01-08 01:08:00,15.5,4.0,30.05,SSE,158,0.4,1.1,60,0.00,,,0.00,WUHU216HW,2013-01-08 08:08:00,
2013-01-08 01:13:00,15.3,4.1,30.05,South,180,0.0,1.1,61,0.00,,,0.00,WUHU216HW,2013-01-08 08:13:00,
2013-01-08 01:18:00,15.1,3.7,30.05,South,180,2.0,2.5,60,0.00,,,0.00,WUHU216HW,2013-01-08 08:18:00,
2013-01-08 01:23:00,14.8,3.3,30.05,South,180,1.1,2.5,60,0.00,,,0.00,WUHU216HW,2013-01-08 08:23:00,
2013-01-08 01:28:00,14.6,3.2,30.05,SSE,158,0.0,2.5,60,0.00,,,0.00,WUHU216HW,2013-01-08 08:28:00,
2013-01-08 01:33:00,14.0,2.7,30.05,ESE,113,1.6,1.8,60,0.00,,,0.00,WUHU216HW,2013-01-08 08:33:00,
2013-01-08 01:38:00,13.9,2.9,30.05,South,180,0.0,2.0,61,0.00,,,0.00,WUHU216HW,2013-01-08 08:38:00,
2013-01-08 01:43:00,13.5,2.5,30.05,WSW,248,0.0,2.0,61,0.00,,,0.00,WUHU216HW,2013-01-08 08:43:00,
2013-01-08 01:48:00,13.3,2.7,30.05,NNW,338,0.0,1.6,62,0.00,,,0.00,WUHU216HW,2013-01-08 08:48:00,
2013-01-08 01:53:00,13.3,2.7,30.05,North,0,0.0,1.6,62,0.00,,,0.00,WUHU216HW,2013-01-08 08:53:00,
2013-01-08 01:58:00,13.1,2.8,30.05,SE,135,0.9,1.8,63,0.00,,,0.00,WUHU216HW,2013-01-08 08:58:00,
2013-01-08 02:03:00,13.0,2.6,30.06,SSE,158,2.9,2.9,63,0.00,,,0.00,WUHU216HW,2013-01-08 09:03:00,
2013-01-08 02:08:00,12.8,2.4,30.06,SSW,203,0.4,2.9,63,0.00,,,0.00,WUHU216HW,2013-01-08 09:08:00,
2013-01-08 02:13:00,12.6,2.3,30.05,South,180,1.1,2.9,63,0.00,,,0.00,WUHU216HW,2013-01-08 09:13:00,
2013-01-08 02:18:00,12.2,2.3,30.05,SSE,158,1.6,2.9,64,0.00,,,0.00,WUHU216HW,2013-01-08 09:18:00,
2013-01-08 02:23:00,12.1,2.1,30.05,South,180,1.6,2.2,64,0.00,,,0.00,WUHU216HW,2013-01-08 09:23:00,
2013-01-08 02:28:00,11.9,1.9,30.05,SSE,158,0.0,1.8,64,0.00,,,0.00,WUHU216HW,2013-01-08 09:28:00,
2013-01-08 02:33:00,11.5,1.6,30.04,SSE,158,1.6,1.8,64,0.00,,,0.00,WUHU216HW,2013-01-08 09:33:00,
2013-01-08 02:38:00,11.3,1.5,30.04,South,180,1.1,1.8,64,0.00,,,0.00,WUHU216HW,2013-01-08 09:38:00,
2013-01-08 02:43:00,11.2,1.3,30.04,South,180,0.0,1.6,64,0.00,,,0.00,WUHU216HW,2013-01-08 09:43:00,
2013-01-08 02:48:00,11.2,1.3,30.04,SSE,158,0.0,1.1,64,0.00,,,0.00,WUHU216HW,2013-01-08 09:48:00,
2013-01-08 02:53:00,11.0,1.1,30.04,South,180,0.0,1.6,64,0.00,,,0.00,WUHU216HW,2013-01-08 09:53:00,
2013-01-08 02:58:00,10.8,0.9,30.04,SSE,158,1.1,1.8,64,0.00,,,0.00,WUHU216HW,2013-01-08 09:58:00,
2013-01-08 03:03:00,10.8,0.9,30.04,South,180,0.4,1.8,64,0.00,,,0.00,WUHU216HW,2013-01-08 10:03:00,
2013-01-08 03:08:00,10.6,0.7,30.05,South,180,0.2,1.1,64,0.00,,,0.00,WUHU216HW,2013-01-08 10:08:00,
2013-01-08 03:13:00,10.4,0.5,30.04,South,180,1.6,2.5,64,0.00,,,0.00,WUHU216HW,2013-01-08 10:13:00,
2013-01-08 03:18:00,10.1,0.3,30.04,East,90,0.7,2.5,64,0.00,,,0.00,WUHU216HW,2013-01-08 10:18:00,
2013-01-08 03:23:00,9.7,0.2,30.05,SW,225,0.0,1.8,65,0.00,,,0.00,WUHU216HW,2013-01-08 10:23:00,
2013-01-08 03:28:00,9.7,0.2,30.05,SSE,158,1.1,1.8,65,0.00,,,0.00,WUHU216HW,2013-01-08 10:28:00,
2013-01-08 03:33:00,9.7,0.5,30.05,SE,135,1.6,2.2,66,0.00,,,0.00,WUHU216HW,2013-01-08 10:33:00,
2013-01-08 03:38:00,9.7,0.5,30.05,SSE,158,1.8,3.4,66,0.00,,,0.00,WUHU216HW,2013-01-08 10:38:00,
2013-01-08 03:43:00,9.5,0.1,30.05,SE,135,0.9,3.4,65,0.00,,,0.00,WUHU216HW,2013-01-08 10:43:00,
2013-01-08 03:48:00,9.0,-0.4,30.05,ESE,113,1.1,1.8,65,0.00,,,0.00,WUHU216HW,2013-01-08 10:48:00,
2013-01-08 03:53:00,8.8,-0.6,30.05,SE,135,2.0,2.9,65,0.00,,,0.00,WUHU216HW,2013-01-08 10:53:00,
2013-01-08 03:58:00,8.6,-0.8,30.05,South,180,2.5,2.9,65,0.00,,,0.00,WUHU216HW,2013-01-08 10:58:00,
2013-01-08 04:03:00,8.5,-0.6,30.05,South,180,1.1,2.7,66,0.00,,,0.00,WUHU216HW,2013-01-08 11:03:00,
2013-01-08 04:08:00,8.5,-0.6,30.05,East,90,1.8,2.7,66,0.00,,,0.00,WUHU216HW,2013-01-08 11:08:00,
2013-01-08 04:13:00,8.3,-0.8,30.05,ESE,113,2.0,2.7,66,0.00,,,0.00,WUHU216HW,2013-01-08 11:13:00,
2013-01-08 04:18:00,8.3,-0.8,30.05,SSE,158,3.6,3.6,66,0.00,,,0.00,WUHU216HW,2013-01-08 11:18:00,
2013-01-08 04:23:00,8.3,-0.4,30.05,South,180,4.0,4.7,67,0.00,,,0.00,WUHU216HW,2013-01-08 11:23:00,
2013-01-08 04:28:00,8.5,0.0,30.05,SSW,203,3.8,5.8,68,0.00,,,0.00,WUHU216HW,2013-01-08 11:28:00,
2013-01-08 04:33:00,8.5,0.0,30.05,SE,135,2.5,5.8,68,0.00,,,0.00,WUHU216HW,2013-01-08 11:33:00,
2013-01-08 04:38:00,8.8,0.4,30.05,SE,135,1.8,3.8,68,0.00,,,0.00,WUHU216HW,2013-01-08 11:38:00,
2013-01-08 04:43:00,9.2,0.7,30.05,SE,135,2.5,3.6,68,0.00,,,0.00,WUHU216HW,2013-01-08 11:43:00,
2013-01-08 04:48:00,9.7,1.5,30.05,SSE,158,2.7,5.1,69,0.00,,,0.00,WUHU216HW,2013-01-08 11:48:00,
2013-01-08 04:53:00,10.6,2.3,30.05,ESE,113,2.0,5.1,69,0.00,,,0.00,WUHU216HW,2013-01-08 11:53:00,
2013-01-08 04:58:00,11.3,3.1,30.05,SE,135,2.9,4.5,69,0.00,,,0.00,WUHU216HW,2013-01-08 11:58:00,
2013-01-08 05:03:00,13.0,4.7,30.05,SE,135,2.7,6.5,69,0.00,,,0.00,WUHU216HW,2013-01-08 12:03:00,
2013-01-08 05:08:00,14.8,6.1,30.05,SE,135,4.0,6.5,68,0.00,,,0.00,WUHU216HW,2013-01-08 12:08:00,
2013-01-08 05:13:00,16.6,7.5,30.05,ESE,113,4.7,8.3,67,0.00,,,0.00,WUHU216HW,2013-01-08 12:13:00,
2013-01-08 05:18:00,17.6,7.8,30.05,ESE,113,3.6,8.3,65,0.00,,,0.00,WUHU216HW,2013-01-08 12:18:00,
2013-01-08 05:23:00,18.4,8.1,30.05,SE,135,2.9,8.3,64,0.00,,,0.00,WUHU216HW,2013-01-08 12:23:00,
2013-01-08 05:28:00,18.9,8.3,30.05,SE,135,1.8,6.5,63,0.00,,,0.00,WUHU216HW,2013-01-08 12:28:00,
2013-01-08 05:33:00,19.1,8.1,30.05,ESE,113,2.5,5.1,62,0.00,,,0.00,WUHU216HW,2013-01-08 12:33:00,
2013-01-08 05:38:00,19.1,7.7,30.06,SE,135,1.8,4.0,61,0.00,,,0.00,WUHU216HW,2013-01-08 12:38:00,
2013-01-08 05:43:00,19.1,7.7,30.06,SE,135,2.5,4.3,61,0.00,,,0.00,WUHU216HW,2013-01-08 12:43:00,
2013-01-08 05:48:00,18.9,7.6,30.06,SE,135,3.1,4.3,61,0.00,,,0.00,WUHU216HW,2013-01-08 12:48:00,
2013-01-08 05:53:00,18.7,7.5,30.06,ESE,113,2.7,4.9,61,0.00,,,0.00,WUHU216HW,2013-01-08 12:53:00,
2013-01-08 05:58:00,19.1,7.7,30.06,SSE,158,6.0,6.7,61,0.00,,,0.00,WUHU216HW,2013-01-08 12:58:00,
2013-01-08 06:03:00,19.8,8.1,30.06,ESE,113,6.3,7.6,60,0.00,,,0.00,WUHU216HW,2013-01-08 13:03:00,
2013-01-08 06:08:00,20.5,8.4,30.06,ESE,113,8.3,8.3,59,0.00,,,0.00,WUHU216HW,2013-01-08 13:08:00,
2013-01-08 06:13:00,21.6,8.7,30.06,ESE,113,6.3,9.4,57,0.00,,,0.00,WUHU216HW,2013-01-08 13:13:00,
2013-01-08 06:18:00,22.3,8.9,30.06,East,90,5.1,9.4,56,0.00,,,0.00,WUHU216HW,2013-01-08 13:18:00,
2013-01-08 06:23:00,22.7,9.3,30.06,ESE,113,2.5,9.2,56,0.00,,,0.00,WUHU216HW,2013-01-08 13:23:00,
2013-01-08 06:28:00,22.7,8.8,30.07,SE,135,2.0,7.4,55,0.00,,,0.00,WUHU216HW,2013-01-08 13:28:00,
2013-01-08 06:33:00,22.5,8.6,30.07,ESE,113,1.8,4.5,55,0.00,,,0.00,WUHU216HW,2013-01-08 13:33:00,
2013-01-08 06:38:00,22.3,8.5,30.07,SE,135,2.9,4.0,55,0.00,,,0.00,WUHU216HW,2013-01-08 13:38:00,
2013-01-08 06:43:00,22.0,8.2,30.07,SE,135,3.4,4.0,55,0.00,,,0.00,WUHU216HW,2013-01-08 13:43:00,
2013-01-08 06:48:00,21.6,7.8,30.07,SE,135,2.0,4.7,55,0.00,,,0.00,WUHU216HW,2013-01-08 13:48:00,
2013-01-08 06:53:00,21.2,7.5,30.08,SE,135,2.5,5.1,55,0.00,,,0.00,WUHU216HW,2013-01-08 13:53:00,
2013-01-08 06:58:00,21.2,7.5,30.08,ESE,113,3.6,5.4,55,0.00,,,0.00,WUHU216HW,2013-01-08 13:58:00,
2013-01-08 07:03:00,21.2,7.5,30.08,SSE,158,3.1,5.4,55,0.00,,,0.00,WUHU216HW,2013-01-08 14:03:00,
2013-01-08 07:08:00,21.2,7.5,30.08,SE,135,3.1,5.4,55,0.00,,,0.00,WUHU216HW,2013-01-08 14:08:00,
2013-01-08 07:13:00,21.2,7.5,30.08,SE,135,3.4,4.7,55,0.00,,,0.00,WUHU216HW,2013-01-08 14:13:00,
2013-01-08 07:18:00,21.2,7.5,30.08,SSE,158,4.0,5.4,55,0.00,,,0.00,WUHU216HW,2013-01-08 14:18:00,
2013-01-08 07:23:00,21.1,7.3,30.09,SSE,158,1.6,5.4,55,0.00,,,0.00,WUHU216HW,2013-01-08 14:23:00,
2013-01-08 07:28:00,20.7,7.4,30.09,SSE,158,2.5,3.8,56,0.00,,,0.00,WUHU216HW,2013-01-08 14:28:00,
2013-01-08 07:33:00,20.3,7.0,30.09,SSE,158,3.8,4.0,56,0.00,,,0.00,WUHU216HW,2013-01-08 14:33:00,
2013-01-08 07:38:00,20.0,7.1,30.09,SSE,158,2.5,5.1,57,0.00,,,0.00,WUHU216HW,2013-01-08 14:38:00,
2013-01-08 07:43:00,19.8,6.9,30.09,ESE,113,2.2,5.1,57,0.00,,,0.00,WUHU216HW,2013-01-08 14:43:00,
2013-01-08 07:48:00,20.0,7.1,30.10,East,90,3.4,6.3,57,0.00,,,0.00,WUHU216HW,2013-01-08 14:48:00,
2013-01-08 07:53:00,21.1,8.1,30.10,SE,135,2.7,6.3,57,0.00,,,0.00,WUHU216HW,2013-01-08 14:53:00,
2013-01-08 07:58:00,21.6,8.2,30.10,ESE,113,4.0,4.7,56,0.00,,,0.00,WUHU216HW,2013-01-08 14:58:00,
2013-01-08 08:03:00,22.0,8.2,30.10,SE,135,2.5,5.4,55,0.00,,,0.00,WUHU216HW,2013-01-08 15:03:00,
2013-01-08 08:08:00,22.0,8.2,30.11,SE,135,2.0,5.4,55,0.00,,,0.00,WUHU216HW,2013-01-08 15:08:00,
2013-01-08 08:13:00,21.8,8.0,30.11,SSE,158,5.1,6.9,55,0.00,,,0.00,WUHU216HW,2013-01-08 15:13:00,
2013-01-08 08:18:00,22.0,8.2,30.11,SSE,158,4.7,6.9,55,0.00,,,0.00,WUHU216HW,2013-01-08 15:18:00,
2013-01-08 08:23:00,22.1,8.4,30.11,ESE,113,3.8,6.0,55,0.00,,,0.00,WUHU216HW,2013-01-08 15:23:00,
2013-01-08 08:28:00,22.1,8.4,30.11,ENE,68,2.7,5.4,55,0.00,,,0.00,WUHU216HW,2013-01-08 15:28:00,
2013-01-08 08:33:00,22.7,8.8,30.11,ENE,68,1.3,6.3,55,0.00,,,0.00,WUHU216HW,2013-01-08 15:33:00,
2013-01-08 08:38:00,23.4,9.1,30.12,East,90,2.2,6.3,54,0.00,,,0.00,WUHU216HW,2013-01-08 15:38:00,
2013-01-08 08:43:00,23.8,9.5,30.12,ESE,113,4.5,6.0,54,0.00,,,0.00,WUHU216HW,2013-01-08 15:43:00,
2013-01-08 08:48:00,24.7,10.4,30.12,ESE,113,7.2,7.6,54,0.00,,,0.00,WUHU216HW,2013-01-08 15:48:00,
2013-01-08 08:53:00,25.9,10.6,30.12,SE,135,6.7,8.7,52,0.00,,,0.00,WUHU216HW,2013-01-08 15:53:00,
2013-01-08 08:58:00,27.0,11.6,30.12,SSE,158,6.3,8.7,52,0.00,,,0.00,WUHU216HW,2013-01-08 15:58:00,
2013-01-08 09:03:00,28.1,11.9,30.13,ESE,113,2.2,7.2,50,0.00,,,0.00,WUHU216HW,2013-01-08 16:03:00,
2013-01-08 09:08:00,28.8,12.6,30.13,East,90,2.5,7.2,50,0.00,,,0.00,WUHU216HW,2013-01-08 16:08:00,
2013-01-08 09:13:00,29.7,12.9,30.13,NE,45,8.1,8.1,49,0.00,,,0.00,WUHU216HW,2013-01-08 16:13:00,
2013-01-08 09:18:00,30.8,12.3,30.13,ESE,113,4.3,10.1,46,0.00,,,0.00,WUHU216HW,2013-01-08 16:18:00,
2013-01-08 09:23:00,32.0,11.4,30.13,NE,45,5.1,10.1,42,0.00,,,0.00,WUHU216HW,2013-01-08 16:23:00,
2013-01-08 09:28:00,33.3,12.6,30.14,East,90,3.4,8.3,42,0.00,,,0.00,WUHU216HW,2013-01-08 16:28:00,
2013-01-08 09:33:00,34.2,13.4,30.13,ENE,68,4.7,6.9,42,0.00,,,0.00,WUHU216HW,2013-01-08 16:33:00,
2013-01-08 09:38:00,34.9,11.8,30.14,ESE,113,3.8,7.8,38,0.00,,,0.00,WUHU216HW,2013-01-08 16:38:00,
2013-01-08 09:43:00,36.0,12.7,30.14,NE,45,6.7,7.8,38,0.00,,,0.00,WUHU216HW,2013-01-08 16:43:00,
2013-01-08 09:48:00,36.4,11.7,30.14,ESE,113,1.8,8.1,36,0.00,,,0.00,WUHU216HW,2013-01-08 16:48:00,
2013-01-08 09:53:00,36.9,10.3,30.14,NE,45,6.9,9.4,33,0.00,,,0.00,WUHU216HW,2013-01-08 16:53:00,
2013-01-08 09:58:00,37.4,11.4,30.14,NE,45,3.4,9.8,34,0.00,,,0.00,WUHU216HW,2013-01-08 16:58:00,
2013-01-08 10:03:00,37.8,10.4,30.15,ENE,68,6.5,9.8,32,0.00,,,0.00,WUHU216HW,2013-01-08 17:03:00,
2013-01-08 10:08:00,38.2,10.1,30.15,ENE,68,9.8,9.8,31,0.00,,,0.00,WUHU216HW,2013-01-08 17:08:00,
2013-01-08 10:13:00,38.5,9.8,30.16,ENE,68,8.5,9.8,30,0.00,,,0.00,WUHU216HW,2013-01-08 17:13:00,
2013-01-08 10:18:00,38.9,11.4,30.16,NE,45,8.5,9.2,32,0.00,,,0.00,WUHU216HW,2013-01-08 17:18:00,
2013-01-08 10:23:00,39.1,11.6,30.16,NNE,23,4.5,9.2,32,0.00,,,0.00,WUHU216HW,2013-01-08 17:23:00,
2013-01-08 10:28:00,39.2,11.1,30.16,North,0,3.8,11.4,31,0.00,,,0.00,WUHU216HW,2013-01-08 17:28:00,
2013-01-08 10:33:00,39.4,11.9,30.16,NNE,23,4.3,11.4,32,0.00,,,0.00,WUHU216HW,2013-01-08 17:33:00,
2013-01-08 10:38:00,39.6,11.4,30.16,East,90,9.2,9.2,31,0.00,,,0.00,WUHU216HW,2013-01-08 17:38:00,
2013-01-08 10:43:00,39.8,12.3,30.15,ENE,68,4.0,9.2,32,0.00,,,0.00,WUHU216HW,2013-01-08 17:43:00,
2013-01-08 10:48:00,40.1,11.9,30.15,North,0,4.0,12.5,31,0.00,,,0.00,WUHU216HW,2013-01-08 17:48:00,
2013-01-08 10:53:00,40.3,12.7,30.15,SE,135,4.0,12.5,32,0.00,,,0.00,WUHU216HW,2013-01-08 17:53:00,
2013-01-08 10:58:00,40.5,11.6,30.15,ENE,68,6.0,8.1,30,0.00,,,0.00,WUHU216HW,2013-01-08 17:58:00,
2013-01-08 11:03:00,40.7,11.7,30.15,ENE,68,3.6,8.1,30,0.00,,,0.00,WUHU216HW,2013-01-08 18:03:00,
2013-01-08 11:08:00,41.0,14.1,30.15,North,0,5.6,9.4,33,0.00,,,0.00,WUHU216HW,2013-01-08 18:08:00,
2013-01-08 11:13:00,41.2,12.3,30.15,NE,45,6.0,9.4,30,0.00,,,0.00,WUHU216HW,2013-01-08 18:13:00,
2013-01-08 11:18:00,41.4,12.3,30.15,ENE,68,6.0,10.3,30,0.00,,,0.00,WUHU216HW,2013-01-08 18:18:00,
2013-01-08 11:23:00,41.6,12.5,30.15,NNE,23,7.2,10.3,30,0.00,,,0.00,WUHU216HW,2013-01-08 18:23:00,
2013-01-08 11:28:00,41.6,13.1,30.15,NE,45,8.3,10.7,31,0.00,,,0.00,WUHU216HW,2013-01-08 18:28:00,
2013-01-08 11:33:00,41.9,12.8,30.14,NE,45,7.2,10.7,30,0.00,,,0.00,WUHU216HW,2013-01-08 18:33:00,
2013-01-08 11:38:00,42.1,14.2,30.14,ESE,113,6.9,10.7,32,0.00,,,0.00,WUHU216HW,2013-01-08 18:38:00,
2013-01-08 11:43:00,42.5,13.2,30.14,NE,45,8.5,12.1,30,0.00,,,0.00,WUHU216HW,2013-01-08 18:43:00,
2013-01-08 11:48:00,42.5,13.2,30.14,NE,45,6.9,12.1,30,0.00,,,0.00,WUHU216HW,2013-01-08 18:48:00,
2013-01-08 11:53:00,42.8,14.9,30.14,NNE,23,2.7,11.0,32,0.00,,,0.00,WUHU216HW,2013-01-08 18:53:00,
2013-01-08 11:58:00,42.8,14.1,30.14,NE,45,7.4,9.6,31,0.00,,,0.00,WUHU216HW,2013-01-08 18:58:00,
2013-01-08 12:03:00,43.0,13.7,30.14,NE,45,7.6,9.2,30,0.00,,,0.00,WUHU216HW,2013-01-08 19:03:00,
2013-01-08 12:08:00,43.0,15.0,30.14,ENE,68,4.0,9.8,32,0.00,,,0.00,WUHU216HW,2013-01-08 19:08:00,
2013-01-08 12:13:00,43.2,13.9,30.14,ESE,113,10.3,10.3,30,0.00,,,0.00,WUHU216HW,2013-01-08 19:13:00,
2013-01-08 12:18:00,43.0,13.7,30.14,ESE,113,9.2,12.1,30,0.00,,,0.00,WUHU216HW,2013-01-08 19:18:00,
2013-01-08 12:23:00,43.0,14.3,30.13,North,0,2.7,12.1,31,0.00,,,0.00,WUHU216HW,2013-01-08 19:23:00,
2013-01-08 12:28:00,43.2,15.1,30.13,ENE,68,10.5,10.5,32,0.00,,,0.00,WUHU216HW,2013-01-08 19:28:00,
2013-01-08 12:33:00,43.2,14.5,30.13,East,90,7.2,11.4,31,0.00,,,0.00,WUHU216HW,2013-01-08 19:33:00,
2013-01-08 12:38:00,43.2,15.1,30.13,NNE,23,5.4,11.4,32,0.00,,,0.00,WUHU216HW,2013-01-08 19:38:00,
2013-01-08 12:43:00,43.6,15.5,30.13,NE,45,2.9,8.9,32,0.00,,,0.00,WUHU216HW,2013-01-08 19:43:00,
2013-01-08 12:48:00,43.7,16.3,30.13,East,90,2.0,8.9,33,0.00,,,0.00,WUHU216HW,2013-01-08 19:48:00,
2013-01-08 12:53:00,43.9,16.5,30.13,NE,45,3.6,9.2,33,0.00,,,0.00,WUHU216HW,2013-01-08 19:53:00,
2013-01-08 12:58:00,44.1,15.3,30.12,ENE,68,6.5,10.3,31,0.00,,,0.00,WUHU216HW,2013-01-08 19:58:00,
2013-01-08 13:03:00,44.1,15.3,30.12,ESE,113,3.4,10.3,31,0.00,,,0.00,WUHU216HW,2013-01-08 20:03:00,
2013-01-08 13:08:00,44.3,15.5,30.12,ENE,68,9.2,9.2,31,0.00,,,0.00,WUHU216HW,2013-01-08 20:08:00,
2013-01-08 13:13:00,44.5,14.0,30.12,East,90,6.7,12.1,29,0.00,,,0.00,WUHU216HW,2013-01-08 20:13:00,
2013-01-08 13:18:00,44.6,15.8,30.12,East,90,3.4,12.1,31,0.00,,,0.00,WUHU216HW,2013-01-08 20:18:00,
2013-01-08 13:23:00,44.8,15.9,30.12,East,90,6.7,8.5,31,0.00,,,0.00,WUHU216HW,2013-01-08 20:23:00,
2013-01-08 13:28:00,45.0,15.5,30.12,ENE,68,7.6,11.6,30,0.00,,,0.00,WUHU216HW,2013-01-08 20:28:00,
2013-01-08 13:33:00,45.0,16.1,30.12,ESE,113,6.3,11.9,31,0.00,,,0.00,WUHU216HW,2013-01-08 20:33:00,
2013-01-08 13:38:00,45.2,14.7,30.12,NNE,23,6.9,11.9,29,0.00,,,0.00,WUHU216HW,2013-01-08 20:38:00,
2013-01-08 13:43:00,45.2,16.3,30.12,North,0,5.8,9.6,31,0.00,,,0.00,WUHU216HW,2013-01-08 20:43:00,
2013-01-08 13:48:00,45.2,15.6,30.12,SE,135,5.4,9.2,30,0.00,,,0.00,WUHU216HW,2013-01-08 20:48:00,
2013-01-08 13:53:00,45.4,17.1,30.12,ESE,113,4.7,12.5,32,0.00,,,0.00,WUHU216HW,2013-01-08 20:53:00,
2013-01-08 13:58:00,45.4,17.1,30.13,ESE,113,7.4,12.5,32,0.00,,,0.00,WUHU216HW,2013-01-08 20:58:00,
2013-01-08 14:03:00,45.4,17.1,30.13,ENE,68,5.4,11.2,32,0.00,,,0.00,WUHU216HW,2013-01-08 21:03:00,
2013-01-08 14:08:00,45.4,17.7,30.13,NE,45,8.5,11.2,33,0.00,,,0.00,WUHU216HW,2013-01-08 21:08:00,
2013-01-08 14:13:00,45.4,17.7,30.13,East,90,6.0,9.6,33,0.00,,,0.00,WUHU216HW,2013-01-08 21:13:00,
2013-01-08 14:18:00,45.7,18.1,30.13,East,90,5.4,8.7,33,0.00,,,0.00,WUHU216HW,2013-01-08 21:18:00,
2013-01-08 14:23:00,45.9,18.3,30.13,ENE,68,2.9,8.7,33,0.00,,,0.00,WUHU216HW,2013-01-08 21:23:00,
2013-01-08 14:28:00,45.9,18.9,30.13,East,90,6.7,7.6,34,0.00,,,0.00,WUHU216HW,2013-01-08 21:28:00,
2013-01-08 14:33:00,46.1,18.5,30.13,ESE,113,5.8,7.6,33,0.00,,,0.00,WUHU216HW,2013-01-08 21:33:00,
2013-01-08 14:38:00,46.1,18.5,30.14,NE,45,5.1,8.3,33,0.00,,,0.00,WUHU216HW,2013-01-08 21:38:00,
2013-01-08 14:43:00,45.9,18.3,30.14,East,90,4.7,8.3,33,0.00,,,0.00,WUHU216HW,2013-01-08 21:43:00,
2013-01-08 14:48:00,45.7,17.5,30.14,NE,45,4.0,8.7,32,0.00,,,0.00,WUHU216HW,2013-01-08 21:48:00,
2013-01-08 14:53:00,45.7,17.5,30.14,ENE,68,2.7,9.4,32,0.00,,,0.00,WUHU216HW,2013-01-08 21:53:00,
2013-01-08 14:58:00,45.9,18.3,30.14,ESE,113,4.7,9.4,33,0.00,,,0.00,WUHU216HW,2013-01-08 21:58:00,
2013-01-08 15:03:00,45.7,18.1,30.14,ENE,68,6.3,9.2,33,0.00,,,0.00,WUHU216HW,2013-01-08 22:03:00,
2013-01-08 15:08:00,45.7,18.1,30.14,NNE,23,6.3,9.2,33,0.00,,,0.00,WUHU216HW,2013-01-08 22:08:00,
2013-01-08 15:13:00,45.7,18.1,30.14,ENE,68,7.2,8.1,33,0.00,,,0.00,WUHU216HW,2013-01-08 22:13:00,
2013-01-08 15:18:00,45.7,18.1,30.14,ENE,68,6.3,9.6,33,0.00,,,0.00,WUHU216HW,2013-01-08 22:18:00,
2013-01-08 15:23:00,45.5,17.9,30.14,East,90,6.3,9.6,33,0.00,,,0.00,WUHU216HW,2013-01-08 22:23:00,
2013-01-08 15:28:00,45.4,17.7,30.14,ENE,68,4.0,8.5,33,0.00,,,0.00,WUHU216HW,2013-01-08 22:28:00,
2013-01-08 15:33:00,45.4,17.7,30.14,NE,45,4.0,7.2,33,0.00,,,0.00,WUHU216HW,2013-01-08 22:33:00,
2013-01-08 15:38:00,45.2,17.7,30.14,NE,45,4.3,8.3,33,0.00,,,0.00,WUHU216HW,2013-01-08 22:38:00,
2013-01-08 15:43:00,45.2,17.7,30.15,NE,45,3.6,8.3,33,0.00,,,0.00,WUHU216HW,2013-01-08 22:43:00,
2013-01-08 15:48:00,45.0,18.1,30.15,East,90,5.8,10.5,34,0.00,,,0.00,WUHU216HW,2013-01-08 22:48:00,
2013-01-08 15:53:00,45.0,18.1,30.15,East,90,8.3,10.5,34,0.00,,,0.00,WUHU216HW,2013-01-08 22:53:00,
2013-01-08 15:58:00,44.8,18.6,30.16,ENE,68,7.8,9.6,35,0.00,,,0.00,WUHU216HW,2013-01-08 22:58:00,
2013-01-08 16:03:00,44.5,18.3,30.16,ESE,113,7.6,12.3,35,0.00,,,0.00,WUHU216HW,2013-01-08 23:03:00,
2013-01-08 16:08:00,44.3,18.1,30.16,NE,45,7.2,12.3,35,0.00,,,0.00,WUHU216HW,2013-01-08 23:08:00,
2013-01-08 16:13:00,44.1,18.6,30.16,ENE,68,5.1,9.2,36,0.00,,,0.00,WUHU216HW,2013-01-08 23:13:00,
2013-01-08 16:18:00,44.1,18.6,30.16,NE,45,6.9,8.5,36,0.00,,,0.00,WUHU216HW,2013-01-08 23:18:00,
2013-01-08 16:23:00,43.9,18.5,30.16,East,90,5.4,10.5,36,0.00,,,0.00,WUHU216HW,2013-01-08 23:23:00,
2013-01-08 16:28:00,43.6,18.2,30.16,ENE,68,4.0,10.5,36,0.00,,,0.00,WUHU216HW,2013-01-08 23:28:00,
2013-01-08 16:33:00,43.4,18.6,30.16,North,0,2.5,10.3,37,0.00,,,0.00,WUHU216HW,2013-01-08 23:33:00,
2013-01-08 16:38:00,43.0,18.4,30.16,NE,45,1.8,8.5,37,0.00,,,0.00,WUHU216HW,2013-01-08 23:38:00,
2013-01-08 16:43:00,42.8,18.2,30.16,NE,45,3.4,5.8,37,0.00,,,0.00,WUHU216HW,2013-01-08 23:43:00,
2013-01-08 16:48:00,42.5,17.8,30.16,NNE,23,3.4,7.6,37,0.00,,,0.00,WUHU216HW,2013-01-08 23:48:00,
2013-01-08 16:53:00,42.1,18.2,30.16,North,0,2.0,7.6,38,0.00,,,0.00,WUHU216HW,2013-01-08 23:53:00,
2013-01-08 16:58:00,41.8,18.6,30.16,NE,45,2.5,4.7,39,0.00,,,0.00,WUHU216HW,2013-01-08 23:58:00,
2013-01-08 17:03:00,41.4,18.2,30.16,ENE,68,1.8,4.0,39,0.00,,,0.00,WUHU216HW,2013-01-09 00:03:00,
2013-01-08 17:08:00,41.0,17.9,30.17,ESE,113,4.7,4.7,39,0.00,,,0.00,WUHU216HW,2013-01-09 00:08:00,
2013-01-08 17:13:00,40.9,17.7,30.16,East,90,4.3,4.7,39,0.00,,,0.00,WUHU216HW,2013-01-09 00:13:00,
2013-01-08 17:18:00,40.7,17.6,30.16,ENE,68,1.6,4.7,39,0.00,,,0.00,WUHU216HW,2013-01-09 00:18:00,
2013-01-08 17:23:00,40.3,17.9,30.16,ESE,113,0.4,4.7,40,0.00,,,0.00,WUHU216HW,2013-01-09 00:23:00,
2013-01-08 17:28:00,39.8,17.4,30.17,East,90,2.5,3.8,40,0.00,,,0.00,WUHU216HW,2013-01-09 00:28:00,
2013-01-08 17:33:00,39.4,17.1,30.17,East,90,2.9,4.3,40,0.00,,,0.00,WUHU216HW,2013-01-09 00:33:00,
2013-01-08 17:38:00,39.2,18.0,30.17,ESE,113,6.3,6.3,42,0.00,,,0.00,WUHU216HW,2013-01-09 00:38:00,
2013-01-08 17:43:00,38.7,17.5,30.17,ENE,68,2.7,6.3,42,0.00,,,0.00,WUHU216HW,2013-01-09 00:43:00,
2013-01-08 17:48:00,38.5,17.3,30.17,ESE,113,3.8,6.3,42,0.00,,,0.00,WUHU216HW,2013-01-09 00:48:00,
2013-01-08 17:53:00,38.5,17.8,30.17,SE,135,4.5,6.3,43,0.00,,,0.00,WUHU216HW,2013-01-09 00:53:00,
2013-01-08 17:58:00,38.3,17.6,30.17,East,90,5.8,9.8,43,0.00,,,0.00,WUHU216HW,2013-01-09 00:58:00,
2013-01-08 18:03:00,38.2,18.0,30.17,ENE,68,5.4,11.0,44,0.00,,,0.00,WUHU216HW,2013-01-09 01:03:00,
2013-01-08 18:08:00,38.2,18.0,30.17,ENE,68,5.4,11.0,44,0.00,,,0.00,WUHU216HW,2013-01-09 01:08:00,
2013-01-08 18:13:00,38.2,18.0,30.17,ENE,68,4.0,8.7,44,0.00,,,0.00,WUHU216HW,2013-01-09 01:13:00,
2013-01-08 18:18:00,38.2,18.5,30.17,ENE,68,6.9,9.6,45,0.00,,,0.00,WUHU216HW,2013-01-09 01:18:00,
2013-01-08 18:23:00,38.0,18.4,30.18,NNE,23,8.1,9.6,45,0.00,,,0.00,WUHU216HW,2013-01-09 01:23:00,
2013-01-08 18:28:00,37.8,18.3,30.18,ENE,68,6.3,9.2,45,0.00,,,0.00,WUHU216HW,2013-01-09 01:28:00,
2013-01-08 18:33:00,37.6,18.1,30.19,SE,135,5.6,9.2,45,0.00,,,0.00,WUHU216HW,2013-01-09 01:33:00,
2013-01-08 18:38:00,37.4,18.5,30.19,ENE,68,4.0,8.9,46,0.00,,,0.00,WUHU216HW,2013-01-09 01:38:00,
2013-01-08 18:43:00,37.4,18.5,30.19,ESE,113,6.9,9.8,46,0.00,,,0.00,WUHU216HW,2013-01-09 01:43:00,
2013-01-08 18:48:00,37.4,19.0,30.19,ESE,113,8.1,9.8,47,0.00,,,0.00,WUHU216HW,2013-01-09 01:48:00,
2013-01-08 18:53:00,37.6,19.1,30.20,East,90,5.4,12.8,47,0.00,,,0.00,WUHU216HW,2013-01-09 01:53:00,
2013-01-08 18:58:00,37.4,19.0,30.20,ENE,68,6.3,12.8,47,0.00,,,0.00,WUHU216HW,2013-01-09 01:58:00,
2013-01-08 19:03:00,37.4,19.0,30.20,NE,45,4.0,10.5,47,0.00,,,0.00,WUHU216HW,2013-01-09 02:03:00,
2013-01-08 19:08:00,37.3,18.8,30.20,NE,45,6.9,8.1,47,0.00,,,0.00,WUHU216HW,2013-01-09 02:08:00,
2013-01-08 19:13:00,37.3,18.8,30.20,ENE,68,8.7,8.7,47,0.00,,,0.00,WUHU216HW,2013-01-09 02:13:00,
2013-01-08 19:18:00,37.3,19.4,30.21,NE,45,4.5,8.7,48,0.00,,,0.00,WUHU216HW,2013-01-09 02:18:00,
2013-01-08 19:23:00,37.1,19.2,30.21,ENE,68,5.1,9.2,48,0.00,,,0.00,WUHU216HW,2013-01-09 02:23:00,
2013-01-08 19:28:00,37.1,19.2,30.21,NE,45,9.8,11.0,48,0.00,,,0.00,WUHU216HW,2013-01-09 02:28:00,
2013-01-08 19:33:00,37.1,19.7,30.21,NE,45,6.3,12.3,49,0.00,,,0.00,WUHU216HW,2013-01-09 02:33:00,
2013-01-08 19:38:00,37.1,19.7,30.21,ENE,68,4.9,12.3,49,0.00,,,0.00,WUHU216HW,2013-01-09 02:38:00,
2013-01-08 19:43:00,36.9,19.5,30.21,NE,45,4.5,10.5,49,0.00,,,0.00,WUHU216HW,2013-01-09 02:43:00,
2013-01-08 19:48:00,36.5,19.7,30.21,North,0,6.9,9.2,50,0.00,,,0.00,WUHU216HW,2013-01-09 02:48:00,
2013-01-08 19:53:00,36.4,19.5,30.21,NE,45,4.7,10.5,50,0.00,,,0.00,WUHU216HW,2013-01-09 02:53:00,
2013-01-08 19:58:00,36.7,19.9,30.22,NE,45,4.7,11.4,50,0.00,,,0.00,WUHU216HW,2013-01-09 02:58:00,
2013-01-08 20:03:00,36.5,19.7,30.22,North,0,5.4,11.4,50,0.00,,,0.00,WUHU216HW,2013-01-09 03:03:00,
2013-01-08 20:08:00,36.4,20.0,30.22,NE,45,9.8,13.6,51,0.00,,,0.00,WUHU216HW,2013-01-09 03:08:00,
2013-01-08 20:13:00,36.4,20.0,30.21,NNE,23,10.5,13.6,51,0.00,,,0.00,WUHU216HW,2013-01-09 03:13:00,
2013-01-08 20:18:00,36.4,20.0,30.21,NNE,23,3.1,12.3,51,0.00,,,0.00,WUHU216HW,2013-01-09 03:18:00,
2013-01-08 20:23:00,36.5,20.2,30.22,NE,45,5.4,12.3,51,0.00,,,0.00,WUHU216HW,2013-01-09 03:23:00,
2013-01-08 20:28:00,36.5,20.2,30.22,NE,45,6.3,10.7,51,0.00,,,0.00,WUHU216HW,2013-01-09 03:28:00,
2013-01-08 20:33:00,36.4,20.0,30.22,NE,45,8.7,10.7,51,0.00,,,0.00,WUHU216HW,2013-01-09 03:33:00,
2013-01-08 20:38:00,36.4,20.0,30.22,East,90,6.7,11.9,51,0.00,,,0.00,WUHU216HW,2013-01-09 03:38:00,
2013-01-08 20:43:00,36.2,19.8,30.22,NNE,23,2.9,11.9,51,0.00,,,0.00,WUHU216HW,2013-01-09 03:43:00,
2013-01-08 20:48:00,35.8,19.9,30.21,North,0,6.9,10.5,52,0.00,,,0.00,WUHU216HW,2013-01-09 03:48:00,
2013-01-08 20:53:00,35.8,19.9,30.21,NE,45,6.9,10.7,52,0.00,,,0.00,WUHU216HW,2013-01-09 03:53:00,
2013-01-08 20:58:00,35.8,19.5,30.21,ENE,68,1.6,10.7,51,0.00,,,0.00,WUHU216HW,2013-01-09 03:58:00,
2013-01-08 21:03:00,35.8,19.9,30.21,NNW,338,5.8,8.3,52,0.00,,,0.00,WUHU216HW,2013-01-09 04:03:00,
2013-01-08 21:08:00,35.6,19.8,30.21,North,0,3.8,8.1,52,0.00,,,0.00,WUHU216HW,2013-01-09 04:08:00,
2013-01-08 21:13:00,35.5,20.0,30.22,ENE,68,5.4,8.5,53,0.00,,,0.00,WUHU216HW,2013-01-09 04:13:00,
2013-01-08 21:18:00,35.5,20.0,30.22,ENE,68,4.7,8.5,53,0.00,,,0.00,WUHU216HW,2013-01-09 04:18:00,
2013-01-08 21:23:00,35.3,19.8,30.22,ENE,68,7.2,7.4,53,0.00,,,0.00,WUHU216HW,2013-01-09 04:23:00,
2013-01-08 21:28:00,35.3,19.8,30.22,ENE,68,5.8,7.6,53,0.00,,,0.00,WUHU216HW,2013-01-09 04:28:00,
2013-01-08 21:33:00,35.5,19.6,30.22,NNE,23,5.4,7.6,52,0.00,,,0.00,WUHU216HW,2013-01-09 04:33:00,
2013-01-08 21:38:00,35.5,19.6,30.22,ENE,68,3.4,7.2,52,0.00,,,0.00,WUHU216HW,2013-01-09 04:38:00,
2013-01-08 21:43:00,35.3,19.5,30.23,SE,135,5.6,7.4,52,0.00,,,0.00,WUHU216HW,2013-01-09 04:43:00,
2013-01-08 21:48:00,34.9,19.4,30.23,SSE,158,3.6,7.4,53,0.00,,,0.00,WUHU216HW,2013-01-09 04:48:00,
2013-01-08 21:53:00,34.6,20.0,30.24,South,180,6.9,9.8,55,0.00,,,0.00,WUHU216HW,2013-01-09 04:53:00,
2013-01-08 21:58:00,34.2,20.1,30.24,ESE,113,9.2,9.8,56,0.00,,,0.00,WUHU216HW,2013-01-09 04:58:00,
2013-01-08 22:01:00,34.2,20.1,30.24,East,90,6.7,9.8,56,0.00,,,0.00,WUHU216HW,2013-01-09 05:01:00,
2013-01-08 22:02:00,34.2,19.6,30.24,ESE,113,6.3,9.8,55,0.00,,,0.00,WUHU216HW,2013-01-09 05:02:00,
2013-01-08 22:03:00,34.2,19.6,30.24,ESE,113,4.9,9.8,55,0.00,,,0.00,WUHU216HW,2013-01-09 05:03:00,
2013-01-08 22:08:00,34.2,19.6,30.24,East,90,5.4,9.8,55,0.00,,,0.00,WUHU216HW,2013-01-09 05:08:00,
2013-01-08 22:13:00,34.4,19.8,30.25,NE,45,4.0,9.8,55,0.00,,,0.00,WUHU216HW,2013-01-09 05:13:00,
2013-01-08 22:18:00,34.6,20.0,30.25,ENE,68,6.7,6.7,55,0.00,,,0.00,WUHU216HW,2013-01-09 05:18:00,
2013-01-08 22:23:00,34.6,20.0,30.25,ENE,68,6.9,7.4,55,0.00,,,0.00,WUHU216HW,2013-01-09 05:23:00,
2013-01-08 22:28:00,34.6,20.0,30.25,ESE,113,4.0,7.6,55,0.00,,,0.00,WUHU216HW,2013-01-09 05:28:00,
2013-01-08 22:33:00,34.4,19.8,30.26,ESE,113,3.6,7.6,55,0.00,,,0.00,WUHU216HW,2013-01-09 05:33:00,
2013-01-08 22:38:00,33.8,19.3,30.26,ENE,68,6.3,6.3,55,0.00,,,0.00,WUHU216HW,2013-01-09 05:38:00,
2013-01-08 22:43:00,33.7,19.5,30.26,ENE,68,3.4,6.3,56,0.00,,,0.00,WUHU216HW,2013-01-09 05:43:00,
2013-01-08 22:48:00,33.5,19.4,30.25,NNE,23,4.3,6.3,56,0.00,,,0.00,WUHU216HW,2013-01-09 05:48:00,
2013-01-08 22:53:00,33.8,19.7,30.25,ESE,113,7.4,7.6,56,0.00,,,0.00,WUHU216HW,2013-01-09 05:53:00,
2013-01-08 22:58:00,34.2,20.1,30.25,East,90,3.6,7.6,56,0.00,,,0.00,WUHU216HW,2013-01-09 05:58:00,
2013-01-08 23:03:00,34.0,19.9,30.25,East,90,6.3,8.5,56,0.00,,,0.00,WUHU216HW,2013-01-09 06:03:00,
2013-01-08 23:08:00,33.7,19.5,30.25,East,90,4.7,8.5,56,0.00,,,0.00,WUHU216HW,2013-01-09 06:08:00,
2013-01-08 23:13:00,33.5,19.4,30.25,ESE,113,4.0,8.5,56,0.00,,,0.00,WUHU216HW,2013-01-09 06:13:00,
2013-01-08 23:18:00,33.7,20.0,30.25,NE,45,7.4,11.6,57,0.00,,,0.00,WUHU216HW,2013-01-09 06:18:00,
2013-01-08 23:23:00,34.0,19.9,30.25,NNE,23,7.6,11.6,56,0.00,,,0.00,WUHU216HW,2013-01-09 06:23:00,
2013-01-08 23:28:00,34.0,19.9,30.26,East,90,3.8,8.7,56,0.00,,,0.00,WUHU216HW,2013-01-09 06:28:00,
2013-01-08 23:33:00,33.8,19.7,30.26,ESE,113,3.4,7.8,56,0.00,,,0.00,WUHU216HW,2013-01-09 06:33:00,
2013-01-08 23:38:00,33.7,19.5,30.26,SE,135,6.9,8.5,56,0.00,,,0.00,WUHU216HW,2013-01-09 06:38:00,
2013-01-08 23:43:00,33.5,19.8,30.26,East,90,8.9,8.9,57,0.00,,,0.00,WUHU216HW,2013-01-09 06:43:00,
2013-01-08 23:48:00,33.3,19.6,30.26,East,90,7.8,9.8,57,0.00,,,0.00,WUHU216HW,2013-01-09 06:48:00,
2013-01-08 23:53:00,33.3,19.6,30.26,ENE,68,6.0,10.5,57,0.00,,,0.00,WUHU216HW,2013-01-09 06:53:00,
2013-01-08 23:58:00,33.1,19.9,30.26,NE,45,8.3,10.5,58,0.00,,,0.00,WUHU216HW,2013-01-09 06:58:00,